Stone Cabin, Nevada Weather observations

Data are for observation ending at time listed.
 Day   Time    Ave.   Ave.  Ave.  Vector   Max.   Stn.    Total    Solar   Ave.  
  of    of     Air    Rel.  Wind   Wind    Wind   Baro.  Precip.   Rad.    Soil  
Year   Day     Temp.  Hum.  Speed  Dir.    Gust   Pres.                    Temp. 
2016   (PST)    F      %     mph   deg.    mph     mb.     in.     W/m2     F   
------------------------------------------------------------------------------
 272   14:00   72.7    25    2.7   133     10.6    816     0.00     309    65.3
 272   15:00   76.8    21    1.5   117      5.9    816     0.00     633    65.4
 272   16:00   73.7    24    2.4   102      9.2    818     0.00     171    66.0
 272   17:00   66.9    34    6.3   188     16.3    819     0.00      27    65.6
 272   18:00   62.3    45    3.5   193     13.5    819     0.00       8    64.6
 272   19:00   59.7    48    0.3   140      2.5    820     0.00       0    63.4
 272   20:00   57.3    52    0.7   303      3.1    820     0.00       0    62.5
 272   21:00   56.0    53    0.6   238      3.7    817     0.00       0    61.6
 272   22:00   51.6    59    0.9   288      3.8    822     0.00       0    60.8
 272   23:00   51.0    57    1.2   319      3.6    826     0.00       0    60.0
 273    0:00   50.8    61    0.4   295      3.2    826     0.00       0    59.5
 273    1:00   49.5    64    0.0   265      1.3    825     0.00       0    59.1
 273    2:00   47.9    67    0.8   331      2.4    826     0.00       0    58.7
 273    3:00   45.2    72    0.3   275      3.0    824     0.00       0    58.2
 273    4:00   44.3    72    0.4   296      2.8    825     0.00       0    57.7
 273    5:00   42.4    76    0.0   285      0.4    827     0.00       0    57.1
 273    6:00   41.8    77    0.0     0      0.0    827     0.00       2    56.5
 273    7:00   43.4    76    0.0   306      1.9    827     0.00      20    56.0
 273    8:00   55.0    59    0.2   307      2.6    828     0.00     257    55.8
 273    9:00   66.6    38    0.4   149      3.4    828     0.00     517    56.6
 273   10:00   68.7    35    3.8   184     12.3    826     0.00     672    58.5
 273   11:00   70.6    32    5.1   181     13.0    828     0.00     758    60.9
 273   12:00   71.0    31    4.8   191     12.9    827     0.00     546    63.4
 273   13:00   73.3    28    4.9   186     15.0    827     0.00     758    64.6

Return to Stone Cabin, Nevada graphs page.


Western Regional Climate Center,wrcc@dri.edu